createdAt,value
2018-04-10T00:04:15.026Z,31.73
2018-04-10T00:10:19.369Z,33.53
2018-04-10T00:16:23.757Z,30.23
2018-04-10T00:22:28.875Z,46.33
2018-04-10T00:28:33.216Z,34.30
2018-04-10T00:34:37.573Z,34.90
2018-04-10T00:40:41.919Z,45.17
2018-04-10T00:46:47.023Z,35.70
2018-04-10T00:52:51.372Z,39.67
2018-04-10T00:58:55.716Z,36.53
2018-04-10T01:05:00.093Z,40.03
2018-04-10T01:11:04.435Z,38.70
2018-04-10T01:17:08.790Z,40.90
2018-04-10T01:23:13.927Z,51.37
2018-04-10T01:29:18.262Z,35.60
2018-04-10T01:35:22.632Z,38.90
2018-04-10T01:41:27.747Z,39.57
2018-04-10T01:47:32.157Z,35.93
2018-04-10T01:53:36.526Z,34.47
2018-04-10T01:59:40.869Z,40.60
2018-04-10T02:05:45.219Z,34.37
2018-04-10T02:20:14.000Z,36.87
2018-04-10T02:26:18.486Z,41.73
2018-04-10T02:32:22.892Z,32.47
2018-04-10T02:38:27.339Z,38.40
2018-04-10T02:44:31.764Z,35.57
2018-04-10T02:50:36.305Z,35.30
2018-04-10T02:56:40.896Z,35.57
2018-04-10T03:02:45.387Z,36.60
2018-04-10T03:08:49.754Z,37.57
2018-04-10T03:14:54.306Z,38.17
2018-04-10T03:20:58.855Z,37.90
2018-04-10T03:27:03.217Z,36.60
2018-04-10T03:33:07.594Z,41.30
2018-04-10T03:39:12.453Z,43.80
2018-04-10T03:45:17.002Z,38.53
2018-04-10T03:51:21.423Z,39.07
2018-04-10T03:57:25.842Z,37.53
2018-04-10T04:03:30.207Z,44.17
2018-04-10T04:09:35.479Z,42.37
2018-04-10T04:15:40.314Z,46.90
2018-04-10T04:22:07.341Z,42.60
2018-04-10T04:28:11.722Z,42.17
2018-04-10T04:34:16.095Z,35.87
2018-04-10T04:40:20.592Z,38.73
2018-04-10T04:46:24.960Z,37.27
2018-04-10T04:52:29.483Z,54.10
2018-04-10T04:58:34.637Z,48.30
2018-04-10T05:04:39.062Z,40.50
2018-04-10T05:10:44.700Z,40.37
2018-04-10T05:16:49.231Z,36.10
2018-04-10T05:22:54.347Z,40.10
2018-04-10T05:28:59.649Z,43.13
2018-04-10T05:35:04.339Z,44.10
2018-04-10T05:41:08.772Z,46.60
2018-04-10T05:47:14.315Z,41.10
2018-04-10T05:53:18.680Z,41.27
2018-04-10T05:59:23.175Z,39.70
2018-04-10T06:05:27.543Z,40.77
2018-04-10T06:11:31.971Z,47.33
2018-04-10T06:17:37.123Z,51.17
2018-04-10T06:23:41.917Z,52.10
2018-04-10T06:29:47.516Z,41.77
2018-04-10T06:35:51.920Z,44.23
2018-04-10T06:41:56.285Z,47.83
2018-04-10T06:48:00.961Z,39.73
2018-04-10T06:54:05.486Z,36.00
2018-04-10T07:00:10.069Z,37.30
2018-04-10T07:06:14.540Z,39.23
2018-04-10T07:12:18.903Z,40.47
2018-04-10T07:18:24.024Z,35.90
2018-04-10T07:24:28.477Z,37.17
2018-04-10T07:30:33.704Z,40.63
2018-04-10T07:36:38.062Z,40.03
2018-04-10T07:42:43.047Z,43.13
2018-04-10T07:48:47.622Z,39.37
2018-04-10T07:54:52.081Z,46.53
2018-04-10T08:00:57.297Z,40.90
2018-04-10T08:07:02.776Z,41.53
2018-04-10T08:13:07.971Z,40.23
2018-04-10T08:19:13.011Z,40.37
2018-04-10T08:25:17.470Z,42.77
2018-04-10T08:31:21.824Z,35.43
2018-04-10T08:37:26.226Z,37.63
2018-04-10T08:43:30.589Z,47.13
2018-04-10T08:49:34.966Z,42.83
2018-04-10T08:55:39.438Z,40.57
2018-04-10T09:01:44.064Z,43.07
2018-04-10T09:07:48.494Z,44.77
2018-04-10T09:13:52.860Z,39.00
2018-04-10T09:19:57.563Z,46.43
2018-04-10T09:26:02.090Z,42.63
2018-04-10T09:32:08.110Z,44.33
2018-04-10T09:38:13.124Z,40.37
2018-04-10T09:44:17.499Z,38.80
2018-04-10T09:50:21.879Z,49.20
2018-04-10T09:56:26.553Z,48.00
2018-04-10T10:02:31.113Z,40.80
2018-04-10T10:08:35.512Z,48.17
2018-04-10T10:14:39.945Z,48.13
2018-04-10T10:20:44.717Z,43.37
2018-04-10T10:26:49.098Z,44.07
2018-04-10T10:32:53.641Z,41.80
2018-04-10T10:38:58.011Z,38.00
2018-04-10T10:45:02.377Z,42.43
2018-04-10T10:51:06.741Z,34.97
2018-04-10T10:57:11.761Z,37.90
2018-04-10T11:03:16.192Z,41.13
2018-04-10T11:09:20.570Z,49.23
2018-04-10T11:15:25.055Z,43.33
2018-04-10T11:21:30.201Z,41.90
2018-04-10T11:27:34.641Z,40.10
2018-04-10T11:33:39.047Z,40.33
2018-04-10T11:39:43.415Z,43.00
2018-04-10T11:45:47.875Z,43.40
2018-04-10T11:51:52.288Z,47.40
2018-04-10T11:57:56.702Z,41.70
2018-04-10T12:04:01.130Z,40.73
2018-04-10T12:10:05.580Z,43.13
2018-04-10T12:16:10.297Z,48.20
2018-04-10T12:22:14.852Z,46.80
2018-04-10T12:28:19.340Z,49.33
2018-04-10T12:34:23.790Z,47.80
2018-04-10T12:40:28.171Z,47.60
2018-04-10T12:46:32.546Z,49.10
2018-04-10T12:52:36.922Z,44.00
2018-04-10T12:58:41.332Z,43.37
2018-04-10T13:04:45.718Z,45.07
2018-04-10T13:10:50.172Z,50.13
2018-04-10T13:16:55.036Z,40.00
2018-04-10T13:22:59.454Z,43.30
2018-04-10T13:29:03.909Z,41.37
2018-04-10T13:35:08.444Z,44.50
2018-04-10T13:41:13.634Z,44.30
2018-04-10T13:47:18.113Z,54.27
2018-04-10T13:53:23.252Z,51.43
2018-04-10T13:59:27.761Z,57.00
2018-04-10T14:05:32.143Z,47.93
2018-04-10T14:11:36.731Z,48.07
2018-04-10T14:17:42.608Z,47.47
2018-04-10T14:23:47.212Z,51.87
2018-04-10T14:29:51.585Z,49.63
2018-04-10T14:35:55.966Z,53.17
2018-04-10T14:42:01.092Z,47.17
2018-04-10T14:48:05.502Z,49.30
2018-04-10T14:54:10.099Z,51.87
2018-04-10T15:00:14.729Z,54.60
2018-04-10T15:06:19.093Z,53.63
2018-04-10T15:12:23.477Z,59.40
2018-04-10T15:18:27.833Z,52.03
2018-04-10T15:24:32.257Z,55.37
2018-04-10T15:30:36.716Z,49.27
2018-04-10T15:36:41.291Z,46.97
2018-04-10T15:42:46.425Z,48.00
2018-04-10T15:48:50.815Z,49.63
2018-04-10T15:54:55.218Z,51.83
2018-04-10T16:00:59.586Z,45.17
2018-04-10T16:07:04.713Z,28.63
2018-04-10T16:13:09.176Z,21.63
2018-04-10T16:19:13.964Z,17.70
2018-04-10T16:25:18.413Z,16.23
2018-04-10T16:31:23.543Z,16.63
2018-04-10T16:37:27.942Z,26.70
2018-04-10T16:43:32.300Z,20.53
2018-04-10T16:49:36.685Z,17.63
2018-04-10T16:55:42.367Z,19.60
2018-04-10T17:01:46.778Z,27.70
2018-04-10T17:07:51.169Z,21.90
2018-04-10T17:13:56.446Z,16.90
2018-04-10T17:20:01.712Z,19.20
2018-04-10T17:26:06.084Z,26.20
2018-04-10T17:32:10.544Z,28.80
2018-04-10T17:38:15.184Z,16.63
2018-04-10T17:44:19.561Z,19.03
2018-04-10T17:50:23.939Z,17.70
2018-04-10T17:56:28.341Z,15.00
2018-04-10T18:02:32.722Z,16.43
2018-04-10T18:08:37.077Z,15.20
2018-04-10T18:14:43.027Z,27.47
2018-04-10T18:20:47.480Z,11.00
2018-04-10T18:26:52.107Z,9.07
2018-04-10T18:32:56.480Z,9.87
2018-04-10T18:39:00.826Z,8.87
2018-04-10T18:45:05.292Z,10.63
2018-04-10T18:51:09.719Z,12.07
2018-04-10T18:57:14.198Z,4.70
2018-04-10T19:03:18.548Z,7.90
2018-04-10T19:09:22.960Z,6.67
2018-04-10T19:15:27.310Z,9.43
2018-04-10T19:21:31.745Z,8.40
2018-04-10T19:27:36.098Z,11.00
2018-04-10T19:33:41.368Z,6.77
2018-04-10T19:39:45.750Z,8.27
2018-04-10T19:45:50.248Z,9.83
2018-04-10T19:51:54.605Z,14.07
2018-04-10T19:57:58.975Z,28.93
2018-04-10T20:04:03.384Z,8.03
2018-04-10T20:10:07.767Z,8.37
2018-04-10T20:16:12.922Z,7.50
2018-04-10T20:22:18.057Z,10.03
2018-04-10T20:28:22.418Z,10.73
2018-04-10T20:34:26.775Z,6.27
2018-04-10T20:40:31.147Z,6.37
2018-04-10T20:46:35.539Z,7.87
2018-04-10T20:52:40.370Z,9.23
2018-04-10T20:58:45.559Z,4.20
2018-04-10T21:04:50.069Z,6.60
2018-04-10T21:10:54.453Z,8.20
2018-04-10T21:16:59.570Z,4.87
2018-04-10T21:23:03.932Z,7.60
2018-04-10T21:29:08.308Z,9.93
2018-04-10T21:35:13.482Z,4.83
2018-04-10T21:41:17.883Z,6.27
2018-04-10T21:47:22.252Z,5.27
2018-04-10T21:53:27.414Z,10.10
2018-04-10T21:59:31.822Z,8.60
2018-04-10T22:05:37.017Z,4.93
2018-04-10T22:11:42.228Z,13.90
2018-04-10T22:17:46.623Z,9.27
2018-04-10T22:23:50.982Z,5.53
2018-04-10T22:29:55.330Z,3.30
2018-04-10T22:36:00.415Z,2.90
2018-04-10T22:42:04.782Z,3.20
2018-04-10T22:48:09.137Z,11.60
2018-04-10T22:54:15.187Z,8.87
2018-04-10T23:00:33.139Z,3.10
2018-04-10T23:06:37.195Z,12.20
2018-04-10T23:12:43.263Z,5.43
2018-04-10T23:18:47.699Z,5.00
2018-04-10T23:24:52.082Z,5.40
2018-04-10T23:30:56.431Z,2.87
2018-04-10T23:37:00.808Z,5.97
2018-04-10T23:43:05.186Z,11.60
2018-04-10T23:49:09.861Z,4.23
2018-04-10T23:55:14.231Z,5.83
